Time;durP1;ratioP1;P1;durP2;ratioP2;P2;SDS_P1;SDS_P2;PMS_P1;PMS_P2;Temp;Humidity;BMP_temperature;BMP_pressure;BME280_temperature;BME280_humidity;BME280_pressure;Samples;Min_cycle;Max_cycle;Signal;HPM_P1;HPM_P2
2022/03/13 00:02:11;;;;;;;35.13;17.82;;;;;;;-7.08;60.36;100951.63;1761345;81;21245;-76
2022/03/13 00:05:17;;;;;;;47.00;20.02;;;;;;;-7.07;60.38;100942.73;1761328;81;21177;-76
2022/03/13 00:08:40;;;;;;;33.25;17.17;;;;;;;-7.07;61.29;100945.39;1761270;81;21207;-75
2022/03/13 00:11:45;;;;;;;35.48;16.48;;;;;;;-7.12;61.73;100944.66;1759898;81;21722;-81
2022/03/13 00:14:51;;;;;;;32.53;15.75;;;;;;;-7.13;61.70;100949.58;1761336;81;21176;-76
2022/03/13 00:17:59;;;;;;;40.45;18.30;;;;;;;-7.13;61.67;100946.92;1761436;81;21209;-80
2022/03/13 00:21:04;;;;;;;45.83;17.67;;;;;;;-7.13;61.46;100946.05;1761275;81;21169;-81
2022/03/13 00:24:10;;;;;;;41.37;17.35;;;;;;;-7.13;62.02;100944.73;1761381;81;22083;-81
2022/03/13 00:27:16;;;;;;;36.05;17.92;;;;;;;-7.14;61.82;100946.52;1761239;81;21204;-75
2022/03/13 00:30:21;;;;;;;45.80;19.70;;;;;;;-7.13;61.67;100947.39;1756654;81;21790;-80
2022/03/13 00:33:27;;;;;;;42.90;18.20;;;;;;;-7.12;61.94;100946.00;1754569;82;21174;-80
2022/03/13 00:36:31;;;;;;;41.73;18.98;;;;;;;-7.14;62.58;100947.84;1754514;82;21790;-76
2022/03/13 00:39:40;;;;;;;42.55;17.17;;;;;;;-7.15;62.96;100946.12;1754567;81;21202;-76
2022/03/13 00:42:46;;;;;;;41.28;17.57;;;;;;;-7.15;63.43;100947.88;1754511;82;21178;-81
2022/03/13 00:45:51;;;;;;;37.35;17.10;;;;;;;-7.19;63.93;100947.12;1754550;82;21755;-75
2022/03/13 00:48:57;;;;;;;40.40;16.82;;;;;;;-7.23;64.33;100947.67;1754594;82;21743;-80
2022/03/13 00:52:04;;;;;;;37.78;18.20;;;;;;;-7.24;64.72;100954.38;1754623;82;21751;-75
2022/03/13 00:55:09;;;;;;;43.08;17.73;;;;;;;-7.31;65.12;100956.34;1735553;82;21170;-75
2022/03/13 00:58:14;;;;;;;39.53;18.65;;;;;;;-7.37;65.35;100950.36;1754674;82;21206;-81
2022/03/13 01:01:20;;;;;;;38.38;17.67;;;;;;;-7.39;65.64;100953.50;1754752;82;21150;-81
2022/03/13 01:04:26;;;;;;;41.77;19.20;;;;;;;-7.44;65.85;100954.11;1754664;82;21218;-81
2022/03/13 01:07:32;;;;;;;48.28;19.45;;;;;;;-7.55;66.19;100952.66;1754772;82;21206;-75
2022/03/13 01:10:42;;;;;;;49.33;21.48;;;;;;;-7.62;66.70;100949.78;1753086;80;21182;-75
2022/03/13 01:13:47;;;;;;;40.92;18.32;;;;;;;-7.66;67.35;100949.45;1754247;82;21206;-81
2022/03/13 01:16:53;;;;;;;33.28;16.77;;;;;;;-7.69;67.62;100956.64;1754157;82;21221;-75
2022/03/13 01:19:59;;;;;;;46.10;18.27;;;;;;;-7.74;68.09;100954.12;1753429;80;21221;-75
2022/03/13 01:23:05;;;;;;;41.42;19.62;;;;;;;-7.78;68.73;100958.64;1753632;82;21225;-81
2022/03/13 01:26:38;;;;;;;55.75;21.60;;;;;;;-7.81;69.40;100957.42;1754587;82;21217;-81
2022/03/13 01:29:42;;;;;;;37.90;15.30;;;;;;;-7.83;70.26;100960.56;1753629;82;22186;-75
2022/03/13 01:32:49;;;;;;;35.55;17.12;;;;;;;-7.81;71.08;100967.15;1759954;81;21205;-81
2022/03/13 01:35:56;;;;;;;37.58;16.90;;;;;;;-7.77;71.49;100965.69;1761472;81;21162;-77
2022/03/13 01:39:03;;;;;;;33.63;15.78;;;;;;;-7.75;71.59;100970.98;1738778;81;21749;-80
2022/03/13 01:42:09;;;;;;;32.50;15.90;;;;;;;-7.76;71.98;100970.57;1761338;81;21580;-76
2022/03/13 01:45:14;;;;;;;36.15;15.32;;;;;;;-7.74;72.62;100977.56;1761280;81;21242;-76
2022/03/13 01:48:20;;;;;;;38.78;17.35;;;;;;;-7.74;72.98;100981.55;1761415;80;21208;-81
2022/03/13 01:51:26;;;;;;;32.03;15.90;;;;;;;-7.75;73.39;100985.59;1761427;81;21233;-77
2022/03/13 01:54:31;;;;;;;33.83;16.52;;;;;;;-7.75;73.73;100985.13;1761580;81;21676;-77
2022/03/13 01:57:40;;;;;;;33.67;16.00;;;;;;;-7.73;74.20;100989.05;1761304;81;21228;-75
2022/03/13 02:00:46;;;;;;;36.63;18.10;;;;;;;-7.69;74.05;100988.52;1761229;81;21190;-75
2022/03/13 02:03:53;;;;;;;38.42;15.72;;;;;;;-7.76;73.83;100991.82;1761393;81;21202;-81
2022/03/13 02:07:01;;;;;;;33.58;16.32;;;;;;;-7.82;73.93;100990.64;1760983;81;21197;-75
2022/03/13 02:10:07;;;;;;;37.55;18.55;;;;;;;-7.82;73.87;100988.86;1761417;81;21166;-75
2022/03/13 02:13:14;;;;;;;45.20;18.50;;;;;;;-7.83;73.67;100998.20;1759977;81;21711;-81
2022/03/13 02:16:19;;;;;;;36.00;17.32;;;;;;;-7.85;74.06;100997.39;1761322;81;21232;-81
2022/03/13 02:19:25;;;;;;;37.25;17.65;;;;;;;-7.86;74.38;100995.63;1761344;81;21707;-81
2022/03/13 02:22:31;;;;;;;42.48;18.32;;;;;;;-7.85;74.69;100994.74;1761447;81;21213;-75
2022/03/13 02:25:37;;;;;;;40.65;17.40;;;;;;;-7.83;74.89;100996.42;1761316;81;21221;-75
2022/03/13 02:28:46;;;;;;;45.92;19.32;;;;;;;-7.81;75.09;100998.59;1761387;81;21193;-82
2022/03/13 02:31:46;;;;;;;35.38;19.00;;;;;;;-7.82;75.35;100992.84;1761200;81;21687;-75
2022/03/13 02:34:52;;;;;;;44.30;19.07;;;;;;;-7.85;75.91;100989.42;1764059;81;21205;-75
2022/03/13 02:37:57;;;;;;;38.42;19.07;;;;;;;-7.90;76.26;100991.31;1764133;81;21195;-80
2022/03/13 02:41:05;;;;;;;39.70;18.80;;;;;;;-7.90;76.50;100996.63;1764052;81;21201;-75
2022/03/13 02:44:10;;;;;;;34.73;17.52;;;;;;;-7.92;76.57;101005.11;1764202;81;21162;-75
2022/03/13 02:47:15;;;;;;;36.00;18.73;;;;;;;-7.99;76.72;101003.95;1763433;81;21658;-81
2022/03/13 02:50:20;;;;;;;34.60;17.05;;;;;;;-8.06;76.96;101014.31;1764196;81;21134;-81
2022/03/13 02:53:25;;;;;;;36.68;17.98;;;;;;;-8.12;77.07;101012.30;1763993;81;21801;-81
2022/03/13 02:56:31;;;;;;;38.53;17.77;;;;;;;-8.16;77.19;101016.81;1763873;81;21203;-81
2022/03/13 02:59:37;;;;;;;37.35;16.60;;;;;;;-8.14;77.32;101020.28;1764063;81;21213;-76
2022/03/13 03:02:42;;;;;;;32.05;15.55;;;;;;;-8.08;77.52;101016.16;1764095;81;21256;-75
2022/03/13 03:05:49;;;;;;;41.02;17.98;;;;;;;-8.09;77.45;101017.08;1764049;81;21154;-75
2022/03/13 03:08:55;;;;;;;39.25;17.87;;;;;;;-8.13;77.52;101022.50;1764060;81;21189;-81
2022/03/13 03:12:04;;;;;;;36.17;18.48;;;;;;;-8.16;77.54;101022.11;1763987;81;21212;-75
2022/03/13 03:15:10;;;;;;;42.88;17.73;;;;;;;-8.18;77.55;101027.07;1762621;81;21718;-76
2022/03/13 03:18:17;;;;;;;36.38;17.92;;;;;;;-8.18;77.66;101026.61;1762681;81;21205;-81
2022/03/13 03:21:22;;;;;;;36.17;15.00;;;;;;;-8.16;77.78;101032.73;1764019;81;21208;-81
2022/03/13 03:24:29;;;;;;;37.00;14.68;;;;;;;-8.16;77.67;101031.87;1764160;81;21145;-80
2022/03/13 03:27:34;;;;;;;33.42;15.70;;;;;;;-8.18;77.61;101033.25;1763202;81;21204;-82
2022/03/13 03:30:40;;;;;;;33.80;16.85;;;;;;;-8.21;77.51;101041.28;1762691;81;21169;-80
2022/03/13 03:33:47;;;;;;;28.25;14.38;;;;;;;-8.27;77.40;101037.47;1761919;81;21172;-75
2022/03/13 03:37:01;;;;;;;37.88;16.05;;;;;;;-8.36;77.53;101037.24;1764126;81;21185;-80
2022/03/13 03:40:06;;;;;;;33.92;15.63;;;;;;;-8.40;77.71;101038.27;1764098;81;21186;-75
2022/03/13 03:43:12;;;;;;;31.37;15.32;;;;;;;-8.43;77.77;101041.44;1763974;81;21209;-78
2022/03/13 03:46:18;;;;;;;38.85;14.80;;;;;;;-8.46;77.81;101049.50;1763930;81;21224;-76
2022/03/13 03:49:23;;;;;;;36.35;16.40;;;;;;;-8.47;77.92;101047.27;1764055;81;21718;-80
2022/03/13 03:52:29;;;;;;;29.57;14.10;;;;;;;-8.45;77.94;101045.92;1764194;81;21197;-75
2022/03/13 03:55:34;;;;;;;27.90;13.62;;;;;;;-8.46;77.76;101053.02;1764136;81;21166;-76
2022/03/13 03:58:41;;;;;;;29.02;13.40;;;;;;;-8.45;77.58;101061.84;1764019;81;21169;-77
2022/03/13 04:01:56;;;;;;;30.62;14.25;;;;;;;-8.47;77.40;101061.86;1764084;81;21511;-75
2022/03/13 04:05:03;;;;;;;31.05;14.65;;;;;;;-8.43;77.48;101058.69;1764072;81;21197;-76
2022/03/13 04:08:08;;;;;;;30.85;13.98;;;;;;;-8.39;77.60;101065.20;1763930;81;21232;-81
2022/03/13 04:11:14;;;;;;;31.82;14.83;;;;;;;-8.37;77.45;101069.17;1762539;81;21173;-81
2022/03/13 04:14:21;;;;;;;29.42;14.07;;;;;;;-8.34;77.30;101070.36;1764022;81;21715;-76
2022/03/13 04:17:26;;;;;;;36.15;15.23;;;;;;;-8.36;77.14;101077.54;1764028;81;21201;-81
2022/03/13 04:20:32;;;;;;;25.95;14.58;;;;;;;-8.34;77.02;101075.67;1763973;81;21163;-76
2022/03/13 04:23:42;;;;;;;30.27;14.87;;;;;;;-8.39;76.86;101069.19;1764007;81;21153;-82
2022/03/13 04:26:48;;;;;;;27.42;13.98;;;;;;;-8.39;76.75;101072.30;1764092;81;21209;-75
2022/03/13 04:29:55;;;;;;;31.35;13.72;;;;;;;-8.38;76.88;101071.37;1764001;81;21162;-81
2022/03/13 04:32:57;;;;;;;35.88;12.95;;;;;;;-8.33;77.07;101080.06;1763950;81;21161;-75
2022/03/13 04:36:12;;;;;;;28.80;13.08;;;;;;;-8.29;77.21;101083.93;1764009;81;21570;-76
2022/03/13 04:39:13;;;;;;;26.68;12.37;;;;;;;-8.21;77.34;101090.84;1764013;81;21711;-81
2022/03/13 04:42:18;;;;;;;27.37;13.55;;;;;;;-8.12;77.33;101092.80;1763220;81;21193;-75
2022/03/13 04:45:26;;;;;;;30.77;12.75;;;;;;;-7.95;77.29;101095.47;1763854;81;21169;-81
2022/03/13 04:48:32;;;;;;;20.32;10.28;;;;;;;-7.79;77.14;101096.81;1763929;81;21766;-75
2022/03/13 04:51:39;;;;;;;21.70;9.65;;;;;;;-7.61;76.98;101099.44;1763990;81;21204;-76
2022/03/13 04:54:45;;;;;;;18.30;10.08;;;;;;;-7.49;75.93;101107.92;1764024;81;21166;-75
2022/03/13 04:57:51;;;;;;;21.17;9.63;;;;;;;-7.43;74.46;101108.66;1763911;81;21209;-75
2022/03/13 05:00:57;;;;;;;16.73;8.90;;;;;;;-7.36;73.44;101120.41;1764005;81;21169;-81
2022/03/13 05:04:03;;;;;;;21.30;9.60;;;;;;;-7.26;72.83;101118.36;1763948;81;21197;-75
2022/03/13 05:07:09;;;;;;;19.25;8.43;;;;;;;-7.16;72.17;101114.52;1763995;81;21189;-81
2022/03/13 05:10:15;;;;;;;24.30;15.93;;;;;;;-7.10;71.98;101122.80;1763940;81;21725;-75
2022/03/13 05:13:23;;;;;;;23.85;13.45;;;;;;;-7.03;72.03;101128.33;1763943;81;21773;-75
2022/03/13 05:16:27;;;;;;;29.77;16.55;;;;;;;-6.98;71.77;101135.72;1764079;81;21774;-75
2022/03/13 05:19:34;;;;;;;24.10;13.08;;;;;;;-6.90;71.86;101140.83;1764002;81;21142;-81
2022/03/13 05:22:39;;;;;;;16.93;9.25;;;;;;;-6.82;71.70;101147.66;1764006;81;21201;-81
2022/03/13 05:25:48;;;;;;;27.02;9.40;;;;;;;-6.71;71.92;101151.32;1763941;81;21169;-81
2022/03/13 05:28:54;;;;;;;25.68;13.62;;;;;;;-6.64;72.39;101158.64;1763916;81;21742;-80
2022/03/13 05:32:01;;;;;;;18.52;9.33;;;;;;;-6.51;72.68;101158.69;1763913;81;21228;-75
2022/03/13 05:35:05;;;;;;;28.55;16.37;;;;;;;-6.32;72.87;101164.30;1763361;81;21762;-75
2022/03/13 05:38:11;;;;;;;37.88;23.30;;;;;;;-6.21;72.06;101166.16;1761305;81;21723;-76
2022/03/13 05:41:22;;;;;;;19.52;10.03;;;;;;;-6.10;71.46;101171.16;1761318;81;21723;-75
2022/03/13 05:44:25;;;;;;;18.73;9.98;;;;;;;-5.97;71.09;101170.70;1761487;81;21225;-82
2022/03/13 05:47:31;;;;;;;18.80;9.58;;;;;;;-5.82;70.58;101169.28;1761536;81;21225;-82
2022/03/13 05:50:37;;;;;;;17.92;9.15;;;;;;;-5.70;69.46;101171.52;1761423;81;21695;-75
2022/03/13 05:53:42;;;;;;;16.35;10.20;;;;;;;-5.62;69.25;101171.27;1761332;81;21712;-82
2022/03/13 05:56:49;;;;;;;22.48;10.90;;;;;;;-5.53;69.26;101170.08;1761377;81;21209;-76
2022/03/13 05:59:55;;;;;;;16.55;8.28;;;;;;;-5.43;68.66;101171.03;1761421;81;21169;-76
2022/03/13 06:03:09;;;;;;;18.73;8.18;;;;;;;-5.28;68.75;101173.61;1761359;81;21190;-75
2022/03/13 06:06:14;;;;;;;18.17;7.42;;;;;;;-5.19;68.48;101177.28;1761305;81;22118;-82
2022/03/13 06:09:21;;;;;;;23.42;9.50;;;;;;;-5.05;68.49;101180.78;1761313;81;21249;-75
2022/03/13 06:12:27;;;;;;;22.20;9.95;;;;;;;-4.86;67.66;101175.64;1761370;81;21796;-75
2022/03/13 06:15:31;;;;;;;14.33;7.37;;;;;;;-4.70;66.94;101185.30;1761151;81;21196;-77
2022/03/13 06:18:38;;;;;;;19.95;10.45;;;;;;;-4.55;66.03;101185.17;1761371;81;21260;-76
2022/03/13 06:21:43;;;;;;;16.85;9.35;;;;;;;-4.44;64.65;101182.48;1761304;81;21201;-82
2022/03/13 06:24:48;;;;;;;20.82;7.10;;;;;;;-4.36;63.38;101180.85;1761354;81;21213;-79
2022/03/13 06:27:56;;;;;;;15.30;7.30;;;;;;;-4.23;62.88;101181.25;1759827;81;21205;-82
2022/03/13 06:31:02;;;;;;;11.40;6.08;;;;;;;-4.13;62.58;101183.48;1760010;81;21198;-82
2022/03/13 06:34:07;;;;;;;11.28;5.78;;;;;;;-3.99;62.80;101188.27;1760792;81;21762;-75
2022/03/13 06:37:12;;;;;;;17.07;6.00;;;;;;;-3.84;61.99;101184.56;1761397;81;21185;-83
2022/03/13 06:40:19;;;;;;;7.08;5.00;;;;;;;-3.68;61.08;101186.52;1763247;81;21173;-83
2022/03/13 06:43:24;;;;;;;8.30;4.20;;;;;;;-3.54;57.21;101195.77;1762482;81;21206;-83
2022/03/13 06:46:32;;;;;;;10.63;4.70;;;;;;;-3.48;56.67;101198.17;1763700;81;21208;-75
2022/03/13 06:49:39;;;;;;;13.13;4.40;;;;;;;-3.42;57.11;101197.93;1763167;81;21225;-76
2022/03/13 06:52:45;;;;;;;12.23;4.37;;;;;;;-3.33;57.46;101202.02;1762612;81;21212;-82
2022/03/13 06:55:55;;;;;;;12.30;5.60;;;;;;;-3.19;57.70;101199.14;1763923;81;21264;-75
2022/03/13 06:59:03;;;;;;;13.28;5.53;;;;;;;-3.00;57.25;101206.36;1763958;81;21182;-75
2022/03/13 07:02:07;;;;;;;8.55;4.37;;;;;;;-2.89;56.54;101202.25;1763254;81;21209;-75
2022/03/13 07:05:13;;;;;;;9.75;4.75;;;;;;;-2.81;55.54;101199.23;1763080;81;21205;-83
2022/03/13 07:08:18;;;;;;;9.83;5.25;;;;;;;-2.74;55.52;101206.03;1763924;81;21204;-75
2022/03/13 07:11:23;;;;;;;8.38;4.42;;;;;;;-2.62;55.58;101208.64;1763764;81;21221;-75
2022/03/13 07:14:30;;;;;;;8.73;4.65;;;;;;;-2.50;54.64;101222.79;1763753;81;21767;-76
2022/03/13 07:17:37;;;;;;;10.93;4.80;;;;;;;-2.40;54.67;101222.79;1763584;81;21200;-75
2022/03/13 07:20:43;;;;;;;7.92;4.65;;;;;;;-2.29;53.91;101219.59;1763380;81;21213;-75
2022/03/13 07:23:48;;;;;;;8.10;4.25;;;;;;;-2.19;52.97;101223.58;1763412;81;21810;-82
2022/03/13 07:26:54;;;;;;;11.53;4.58;;;;;;;-2.02;53.41;101225.91;1763481;81;21754;-75
2022/03/13 07:29:59;;;;;;;6.00;3.77;;;;;;;-1.90;51.87;101230.22;1766919;80;21207;-75
2022/03/13 07:33:05;;;;;;;8.93;4.00;;;;;;;-1.81;51.00;101235.13;1795863;80;21757;-83
2022/03/13 07:36:12;;;;;;;7.62;4.25;;;;;;;-1.76;50.37;101243.43;1795551;79;21191;-83
2022/03/13 07:39:18;;;;;;;12.05;5.75;;;;;;;-1.77;48.19;101247.06;1795308;80;21172;-82
2022/03/13 07:42:24;;;;;;;9.00;5.08;;;;;;;-1.79;49.17;101248.45;1795183;80;21756;-84
2022/03/13 07:45:26;;;;;;;7.90;4.30;;;;;;;-1.67;49.19;101253.71;1790761;80;21168;-83
2022/03/13 07:48:18;;;;;;;6.72;3.75;;;;;;;-1.54;49.00;101254.85;1795147;80;21231;-76
2022/03/13 07:51:23;;;;;;;11.57;4.45;;;;;;;-1.53;48.36;101255.72;1795563;79;21713;-83
2022/03/13 07:54:28;;;;;;;8.38;4.12;;;;;;;-1.56;49.04;101255.38;1795934;80;21159;-83
2022/03/13 07:57:33;;;;;;;10.05;4.33;;;;;;;-1.53;47.79;101259.74;1795833;80;21219;-83
2022/03/13 08:00:39;;;;;;;8.83;4.35;;;;;;;-1.51;47.85;101259.17;1795878;80;21175;-82
2022/03/13 08:03:45;;;;;;;15.13;5.72;;;;;;;-1.45;47.76;101257.08;1795913;80;21137;-83
2022/03/13 08:06:44;;;;;;;9.85;5.20;;;;;;;-1.38;48.15;101261.66;1795719;79;21172;-76
2022/03/13 08:09:51;;;;;;;9.87;5.90;;;;;;;-1.33;48.09;101256.92;1796124;80;21152;-76
2022/03/13 08:12:58;;;;;;;9.45;4.12;;;;;;;-1.34;47.16;101267.27;1794364;80;21199;-83
2022/03/13 08:16:04;;;;;;;10.75;4.78;;;;;;;-1.37;47.23;101274.12;1795899;80;21187;-83
2022/03/13 08:19:10;;;;;;;7.70;3.98;;;;;;;-1.36;47.34;101270.52;1795960;80;21156;-81
2022/03/13 08:22:17;;;;;;;10.53;5.30;;;;;;;-1.37;47.09;101268.27;1795224;79;21752;-83
2022/03/13 08:25:24;;;;;;;9.75;4.10;;;;;;;-1.44;47.84;101270.88;1795944;80;21632;-78
2022/03/13 08:28:29;;;;;;;12.25;5.08;;;;;;;-1.47;48.40;101276.39;1796001;80;21632;-81
2022/03/13 08:31:34;;;;;;;12.15;4.60;;;;;;;-1.46;48.53;101287.52;1795735;80;21184;-76
2022/03/13 08:34:42;;;;;;;8.90;4.40;;;;;;;-1.46;47.88;101279.47;1796109;80;21153;-81
2022/03/13 08:37:41;;;;;;;12.43;5.55;;;;;;;-1.48;47.95;101280.03;1795881;79;21191;-76
2022/03/13 08:40:46;;;;;;;8.83;4.42;;;;;;;-1.52;48.19;101279.78;1795865;80;21152;-76
2022/03/13 08:43:53;;;;;;;10.05;4.53;;;;;;;-1.56;47.36;101278.19;1795850;80;21164;-82
2022/03/13 08:46:59;;;;;;;12.53;5.40;;;;;;;-1.59;48.33;101279.22;1795269;80;21772;-83
2022/03/13 08:50:05;;;;;;;9.88;5.62;;;;;;;-1.55;48.24;101285.31;1795787;80;21827;-76
2022/03/13 08:53:12;;;;;;;10.85;5.28;;;;;;;-1.53;49.06;101286.09;1794463;80;21792;-83
2022/03/13 08:56:18;;;;;;;8.78;5.08;;;;;;;-1.51;49.49;101277.48;1789785;80;21223;-83
2022/03/13 08:59:25;;;;;;;13.20;5.67;;;;;;;-1.52;48.58;101282.46;1777901;80;21752;-76
2022/03/13 09:02:31;;;;;;;9.60;4.20;;;;;;;-1.56;48.27;101278.19;1763182;81;21207;-83
2022/03/13 09:05:38;;;;;;;10.95;5.37;;;;;;;-1.59;48.31;101269.84;1764324;81;21219;-76
2022/03/13 09:08:45;;;;;;;9.60;4.78;;;;;;;-1.58;49.04;101278.75;1764532;81;21152;-82
2022/03/13 09:11:51;;;;;;;9.43;4.65;;;;;;;-1.53;49.78;101283.41;1763029;81;21183;-82
2022/03/13 09:14:58;;;;;;;9.25;4.90;;;;;;;-1.42;50.31;101291.79;1764479;81;21164;-77
2022/03/13 09:18:05;;;;;;;11.43;4.90;;;;;;;-1.44;48.32;101281.63;1764508;81;21764;-76
2022/03/13 09:21:11;;;;;;;9.53;4.45;;;;;;;-1.48;48.79;101288.08;1764371;81;21163;-82
2022/03/13 09:24:16;;;;;;;9.65;4.50;;;;;;;-1.49;48.42;101285.00;1764438;81;21198;-76
2022/03/13 09:27:22;;;;;;;10.13;4.75;;;;;;;-1.48;48.44;101285.40;1764504;81;21211;-81
2022/03/13 09:30:28;;;;;;;10.98;4.90;;;;;;;-1.44;49.59;101287.46;1764426;81;21155;-75
2022/03/13 09:33:33;;;;;;;7.12;4.03;;;;;;;-1.36;49.40;101282.11;1762978;80;21321;-76
2022/03/13 09:36:42;;;;;;;7.37;4.22;;;;;;;-1.21;49.50;101289.87;1764277;81;21207;-82
2022/03/13 09:39:40;;;;;;;8.05;3.52;;;;;;;-1.15;49.77;101286.86;1761740;81;21261;-81
2022/03/13 09:42:46;;;;;;;8.03;4.00;;;;;;;-1.11;49.75;101287.59;1760585;81;21207;-82
2022/03/13 09:45:52;;;;;;;11.85;4.08;;;;;;;-1.08;49.26;101285.63;1761663;81;21192;-80
2022/03/13 09:49:02;;;;;;;8.53;3.65;;;;;;;-0.99;50.20;101288.76;1761611;81;21673;-76
2022/03/13 09:52:08;;;;;;;8.70;4.50;;;;;;;-0.89;51.18;101293.60;1761315;81;21203;-76
2022/03/13 09:55:16;;;;;;;9.98;3.98;;;;;;;-0.77;51.09;101292.95;1748393;81;21157;-82
2022/03/13 09:58:21;;;;;;;7.78;3.98;;;;;;;-0.62;50.24;101297.13;1750083;81;21734;-82
2022/03/13 10:01:27;;;;;;;7.75;3.58;;;;;;;-0.53;49.15;101291.26;1745649;81;21742;-76
2022/03/13 10:04:33;;;;;;;12.30;4.78;;;;;;;-0.56;48.22;101295.48;1730324;83;21718;-76
2022/03/13 10:07:38;;;;;;;6.92;3.60;;;;;;;-0.58;47.98;101286.12;1730447;83;21157;-82
2022/03/13 10:10:53;;;;;;;10.28;3.65;;;;;;;-0.47;47.93;101292.75;1730334;83;21212;-82
2022/03/13 10:13:59;;;;;;;5.62;2.98;;;;;;;-0.40;47.33;101295.03;1759049;80;21248;-76
2022/03/13 10:17:05;;;;;;;5.60;3.35;;;;;;;-0.32;47.88;101294.64;1759971;81;21208;-82
2022/03/13 10:20:32;;;;;;;8.25;3.65;;;;;;;-0.27;46.55;101295.25;1736141;80;21141;-82
2022/03/13 10:23:38;;;;;;;9.25;3.83;;;;;;;-0.22;46.61;101301.73;1777701;79;21211;-82
2022/03/13 10:26:45;;;;;;;6.45;3.60;;;;;;;-0.20;47.26;101301.16;1730203;80;21204;-76
2022/03/13 10:29:54;;;;;;;9.05;3.47;;;;;;;-0.19;47.20;101296.16;1768840;80;21212;-76
2022/03/13 10:33:05;;;;;;;15.15;4.17;;;;;;;-0.20;47.64;101306.53;1789733;80;21756;-77
2022/03/13 10:36:17;;;;;;;4.95;3.05;;;;;;;-0.19;46.80;101301.54;1773063;78;21144;-76
2022/03/13 10:39:26;;;;;;;8.28;3.40;;;;;;;-0.18;47.12;101296.58;1788967;80;21172;-82
2022/03/13 10:42:43;;;;;;;6.10;2.97;;;;;;;-0.08;47.04;101295.12;1780675;79;21701;-82
2022/03/13 10:45:54;;;;;;;6.92;4.22;;;;;;;-0.04;46.90;101288.14;1768576;79;21840;-82
2022/03/13 10:48:59;;;;;;;7.67;4.58;;;;;;;-0.02;47.94;101296.12;1754593;82;21206;-83
2022/03/13 10:52:04;;;;;;;8.73;3.90;;;;;;;-0.04;47.04;101296.21;1769231;80;21241;-77
2022/03/13 10:55:27;;;;;;;11.03;3.85;;;;;;;-0.12;46.97;101294.89;1784698;80;21861;-78
2022/03/13 10:58:41;;;;;;;6.08;3.20;;;;;;;-0.16;47.41;101290.63;1723308;82;21221;-77
2022/03/13 11:01:44;;;;;;;5.83;3.58;;;;;;;-0.10;48.92;101295.66;1719867;83;21228;-82
2022/03/13 11:05:00;;;;;;;9.73;3.80;;;;;;;-0.10;47.58;101288.94;1778394;80;21161;-77
2022/03/13 11:08:07;;;;;;;9.28;5.28;;;;;;;-0.14;48.30;101297.67;1776161;79;21152;-82
2022/03/13 11:11:19;;;;;;;9.13;3.70;;;;;;;-0.19;46.97;101288.95;1745356;81;21186;-82
2022/03/13 11:14:22;;;;;;;4.65;3.10;;;;;;;-0.26;47.57;101306.39;1737887;81;21251;-83
2022/03/13 11:17:32;;;;;;;7.80;3.67;;;;;;;-0.33;48.00;101303.18;1741450;82;21200;-76
2022/03/13 11:20:38;;;;;;;9.15;3.83;;;;;;;-0.32;48.42;101299.53;1711065;81;21172;-76
2022/03/13 11:23:46;;;;;;;7.90;3.85;;;;;;;-0.21;49.51;101310.18;1772751;79;21198;-76
2022/03/13 11:26:51;;;;;;;8.40;3.87;;;;;;;-0.10;49.19;101309.11;1725352;83;21196;-82
2022/03/13 11:29:57;;;;;;;8.45;3.60;;;;;;;-0.02;48.51;101308.22;1763014;81;21167;-76
2022/03/13 11:33:02;;;;;;;10.68;4.37;;;;;;;0.00;47.25;101296.92;1763712;81;21202;-76
2022/03/13 11:36:40;;;;;;;5.95;3.45;;;;;;;0.02;46.76;101307.10;1764092;81;21159;-77
2022/03/13 11:39:46;;;;;;;8.50;4.75;;;;;;;0.08;47.43;101312.13;1764179;80;21190;-81
2022/03/13 11:43:22;;;;;;;13.93;5.40;;;;;;;0.17;49.66;101312.97;1749000;80;21732;-76
2022/03/13 11:46:47;;;;;;;10.55;3.75;;;;;;;0.25;48.02;101313.42;1729348;81;21205;-82
2022/03/13 11:49:52;;;;;;;9.58;4.60;;;;;;;0.23;47.45;101315.31;1732712;81;21227;-82
2022/03/13 11:52:58;;;;;;;6.75;3.42;;;;;;;0.20;47.05;101310.60;1728293;83;21774;-76
2022/03/13 11:56:11;;;;;;;7.20;4.08;;;;;;;0.22;48.19;101310.89;1719121;83;21271;-82
2022/03/13 11:59:25;;;;;;;7.33;4.15;;;;;;;0.27;47.64;101313.33;1790146;80;21173;-81
2022/03/13 12:02:52;;;;;;;16.60;3.92;;;;;;;0.26;47.72;101314.28;1759286;81;21853;-82
2022/03/13 12:05:59;;;;;;;10.18;4.45;;;;;;;0.31;49.01;101319.41;1755616;81;21189;-82
2022/03/13 12:09:20;;;;;;;8.43;3.60;;;;;;;0.31;49.03;101316.72;1750810;81;21168;-76
2022/03/13 12:12:26;;;;;;;10.70;3.92;;;;;;;0.30;48.25;101314.98;1753558;81;21200;-82
2022/03/13 12:15:31;;;;;;;6.20;4.00;;;;;;;0.29;49.50;101311.44;1738729;81;21184;-81
2022/03/13 12:18:37;;;;;;;8.08;4.40;;;;;;;0.36;49.62;101320.88;1751067;81;21744;-82
2022/03/13 12:21:45;;;;;;;7.05;3.95;;;;;;;0.30;48.79;101315.86;1760482;81;21223;-76
2022/03/13 12:25:03;;;;;;;7.80;3.55;;;;;;;0.23;48.39;101309.92;1760197;81;21232;-76
2022/03/13 12:28:08;;;;;;;7.25;3.92;;;;;;;0.19;50.09;101320.50;1760095;81;21805;-76
2022/03/13 12:31:14;;;;;;;7.97;5.03;;;;;;;0.22;51.07;101326.17;1750265;80;21168;-81
2022/03/13 12:34:19;;;;;;;11.25;4.87;;;;;;;0.24;50.33;101325.63;1760492;81;21738;-77
2022/03/13 12:37:28;;;;;;;8.93;4.35;;;;;;;0.23;50.47;101327.42;1760585;81;21193;-82
2022/03/13 12:40:35;;;;;;;7.90;3.92;;;;;;;0.23;49.67;101334.14;1760493;80;21204;-79
2022/03/13 12:43:58;;;;;;;7.75;4.67;;;;;;;0.20;49.23;101324.05;1759253;80;21175;-76
2022/03/13 12:47:03;;;;;;;8.83;4.00;;;;;;;0.20;49.88;101328.09;1782689;80;21753;-76
2022/03/13 12:50:10;;;;;;;8.35;4.67;;;;;;;0.28;50.05;101326.30;1774586;80;21659;-76
2022/03/13 12:53:26;;;;;;;8.90;4.50;;;;;;;0.31;50.77;101333.73;1779944;79;21733;-77
2022/03/13 12:56:29;;;;;;;16.42;4.72;;;;;;;0.32;50.19;101334.11;1761478;79;21168;-81
2022/03/13 12:59:31;;;;;;;9.43;4.08;;;;;;;0.34;51.97;101328.67;1781112;80;21657;-77
2022/03/13 13:02:32;;;;;;;8.18;4.22;;;;;;;0.38;50.33;101336.97;1780464;80;21192;-82
2022/03/13 13:05:16;;;;;;;6.50;4.12;;;;;;;0.40;50.08;101336.39;1756833;81;21198;-82
2022/03/13 13:08:08;;;;;;;7.45;4.90;;;;;;;0.40;49.94;101340.42;1788932;79;21179;-76
2022/03/13 13:11:00;;;;;;;11.33;4.10;;;;;;;0.39;49.87;101335.52;1733771;81;21188;-77
2022/03/13 13:14:07;;;;;;;9.25;4.03;;;;;;;0.40;50.05;101336.39;1773332;80;21164;-82
2022/03/13 13:17:26;;;;;;;8.48;4.17;;;;;;;0.36;49.06;101336.16;1772464;79;21768;-78
2022/03/13 13:20:33;;;;;;;7.92;3.87;;;;;;;0.29;48.53;101330.75;1785473;79;21658;-76
2022/03/13 13:23:39;;;;;;;6.50;3.95;;;;;;;0.23;49.57;101338.66;1760381;80;21207;-76
2022/03/13 13:26:48;;;;;;;11.40;4.28;;;;;;;0.15;49.27;101338.24;1754453;80;21152;-82
2022/03/13 13:29:56;;;;;;;6.62;3.72;;;;;;;0.09;49.10;101346.63;1777355;79;21133;-82
2022/03/13 13:33:09;;;;;;;8.88;4.08;;;;;;;0.07;50.00;101340.00;1782894;80;21799;-82
2022/03/13 13:36:15;;;;;;;8.05;3.98;;;;;;;0.06;50.64;101349.03;1775887;80;21706;-77
2022/03/13 13:39:21;;;;;;;10.95;3.55;;;;;;;-0.01;50.09;101347.12;1780638;80;21137;-76
2022/03/13 13:42:32;;;;;;;6.12;3.02;;;;;;;-0.04;47.76;101343.77;1775985;80;21686;-82
2022/03/13 13:45:39;;;;;;;6.87;3.80;;;;;;;-0.05;49.55;101344.69;1779625;80;21188;-82
2022/03/13 13:48:52;;;;;;;8.18;3.67;;;;;;;-0.06;48.99;101351.03;1791466;80;21691;-77
2022/03/13 13:52:01;;;;;;;6.60;3.50;;;;;;;-0.08;49.02;101351.59;1782693;78;21160;-82
2022/03/13 13:55:08;;;;;;;7.05;4.05;;;;;;;-0.09;48.77;101353.42;1781977;80;21144;-77
2022/03/13 13:58:35;;;;;;;9.53;3.85;;;;;;;-0.10;49.46;101355.70;1771728;78;21152;-82
2022/03/13 14:01:44;;;;;;;7.78;4.22;;;;;;;-0.10;48.59;101363.77;1784274;78;21220;-82
2022/03/13 14:04:59;;;;;;;7.25;3.77;;;;;;;-0.14;49.14;101368.05;1792308;78;21207;-81
2022/03/13 14:08:04;;;;;;;8.38;4.05;;;;;;;-0.15;49.26;101360.45;1784137;80;21196;-76
2022/03/13 14:11:10;;;;;;;8.08;4.25;;;;;;;-0.18;49.54;101371.40;1794548;78;21735;-82
2022/03/13 14:14:15;;;;;;;7.25;3.90;;;;;;;-0.17;50.04;101366.88;1790126;78;21156;-76
2022/03/13 14:17:21;;;;;;;10.80;4.58;;;;;;;-0.19;49.88;101372.32;1763743;78;21167;-76
2022/03/13 14:20:31;;;;;;;8.80;4.40;;;;;;;-0.22;49.74;101369.81;1785784;80;21717;-81
2022/03/13 14:23:37;;;;;;;12.37;4.45;;;;;;;-0.27;50.28;101369.20;1778683;78;21145;-76